Forside
METAR-TAF:

METAR-TAF

Lufthavne :

Esbjerg Lufthavn

Esbjerg, Danmark

Breddekreds: 55-32N, længdekreds: 008-34E, højde: 30 m

Aktuelle vejr

Denne rapport blev lavet for 32 minutter siden, kl. 23:20 UTC
Vind 11 kt fra nordvest
Temperatur 7°C
Fugtighed 93%
Tryk 1029 hPa
Sigt: 9000 m

METAR: EKEB 222320Z AUTO 32011KT 9000 OVC005/// 07/06 Q1029

Tid: 00:52 (23:52 UTC)

Vejrudsigter

Denne rapport blev lavet for 6 timer og 29 minutter siden, kl. 17:23 UTC
Foreløbig gælder fra 22 på 18 UTC til 22 på 23 UTC
Vind 10 kt fra nordvest
Sigt: 8000 m
Spredte skyer i en højde af 500 ft
Brudte skyer i en højde af 1000 ft
Midlertidig
fra 22 på 18 UTC til 22 på 23 UTC
Sigt: 2500 m
Brudte skyer i en højde af 400 ft
let finregn, regn, dis

TAF: EKEB 221723Z 2218/2223 31010KT 8000 SCT005 BKN010 TEMPO 2218/2223 2500 -DZRA BR BKN004

Vejrobservationer og prognoser fra mere end 4000 lufthavne (METAR og TAF).

De gule og røde prikker repræsenterer de meteorologiske stationer.

Flyt musen over at se navnet på stationen.

Så klik over at se vejr observationer og prognoser.

At skifte det kort: Klik på de grønne knapper med et sort kors for at zoome ind; på den grønne knap med en bindestreg for at zoome ud; eller på de grønne pile for tilstødende kort.


METAR-TAF: